createdAt,value
2022-12-28T00:00:08.198Z,101263.22
2022-12-28T00:02:37.418Z,101255.25
2022-12-28T00:05:05.202Z,101264.00
2022-12-28T00:07:34.073Z,101281.41
2022-12-28T00:10:01.925Z,101297.19
2022-12-28T00:12:30.938Z,101300.88
2022-12-28T00:15:00.287Z,101301.97
2022-12-28T00:17:29.365Z,101298.84
2022-12-28T00:19:59.573Z,101290.03
2022-12-28T00:22:28.225Z,101308.53
2022-12-28T00:24:57.033Z,101310.31
2022-12-28T00:27:24.904Z,101321.25
2022-12-28T00:29:52.976Z,101326.19
2022-12-28T00:32:21.737Z,101329.94
2022-12-28T00:34:50.677Z,101331.50
2022-12-28T00:37:18.890Z,101328.06
2022-12-28T00:39:48.102Z,101329.88
2022-12-28T00:42:19.234Z,101336.13
2022-12-28T00:44:47.104Z,101344.25
2022-12-28T00:47:14.918Z,101345.44
2022-12-28T00:49:44.087Z,101342.91
2022-12-28T00:52:12.139Z,101349.69
2022-12-28T00:54:41.007Z,101350.53
2022-12-28T00:57:09.706Z,101359.97
2022-12-28T00:59:39.601Z,101355.28
2022-12-28T01:02:08.988Z,101352.31
2022-12-28T01:04:37.853Z,101356.00
2022-12-28T01:07:07.068Z,101373.22
2022-12-28T01:09:34.919Z,101373.63
2022-12-28T01:12:03.936Z,101361.88
2022-12-28T01:14:34.190Z,101365.69
2022-12-28T01:17:02.921Z,101357.97
2022-12-28T01:19:32.449Z,101359.53
2022-12-28T01:22:00.932Z,101356.81
2022-12-28T01:24:28.907Z,101350.94
2022-12-28T01:26:56.369Z,101354.94
2022-12-28T01:29:24.832Z,101354.84
2022-12-28T01:31:53.528Z,101357.31
2022-12-28T01:34:21.922Z,101373.63
2022-12-28T01:36:50.791Z,101357.38
2022-12-28T01:39:21.939Z,101367.38
2022-12-28T01:41:50.881Z,101372.22
2022-12-28T01:44:24.949Z,101380.06
2022-12-28T01:47:05.321Z,101388.38
2022-12-28T01:49:40.928Z,101389.16
2022-12-28T01:52:23.785Z,101394.06
2022-12-28T01:55:12.157Z,101400.13
2022-12-28T01:57:50.349Z,101407.91
2022-12-28T02:00:19.096Z,101415.53
2022-12-28T02:02:57.998Z,101411.31
2022-12-28T02:05:37.458Z,101414.50
2022-12-28T02:08:32.707Z,101414.16
2022-12-28T02:11:01.922Z,101415.88
2022-12-28T02:13:32.077Z,101420.09
2022-12-28T02:15:59.869Z,101421.44
2022-12-28T02:18:29.183Z,101420.72
2022-12-28T02:21:24.765Z,101423.06
2022-12-28T02:24:04.999Z,101421.84
2022-12-28T02:27:02.067Z,101429.22
2022-12-28T02:29:49.274Z,101421.91
2022-12-28T02:32:54.827Z,101435.28
2022-12-28T02:35:40.930Z,101426.13
2022-12-28T02:38:32.179Z,101433.41
2022-12-28T02:41:09.314Z,101437.97
2022-12-28T02:43:39.469Z,101436.03
2022-12-28T02:46:31.537Z,101439.19
2022-12-28T02:49:36.365Z,101437.50
2022-12-28T02:52:30.872Z,101438.72
2022-12-28T02:55:34.987Z,101444.75
2022-12-28T02:58:18.486Z,101428.28
2022-12-28T03:01:07.727Z,101438.22
2022-12-28T03:03:53.857Z,101450.34
2022-12-28T03:06:59.794Z,101452.28
2022-12-28T03:09:46.392Z,101455.53
2022-12-28T03:12:27.974Z,101462.66
2022-12-28T03:15:04.948Z,101468.44
2022-12-28T03:17:58.268Z,101469.44
2022-12-28T03:20:51.489Z,101463.63
2022-12-28T03:23:42.502Z,101478.16
2022-12-28T03:26:32.489Z,101477.59
2022-12-28T03:29:28.325Z,101486.38
2022-12-28T03:31:59.451Z,101498.66
2022-12-28T03:34:28.501Z,101503.53
2022-12-28T03:37:12.101Z,101508.72
2022-12-28T03:40:06.548Z,101515.66
2022-12-28T03:43:00.530Z,101513.41
2022-12-28T03:45:46.612Z,101525.22
2022-12-28T03:48:17.554Z,101514.72
2022-12-28T03:50:49.028Z,101523.84
2022-12-28T03:53:21.655Z,101532.44
2022-12-28T08:15:19.679Z,101828.56
2022-12-28T08:17:47.797Z,101837.44
2022-12-28T08:20:18.291Z,101833.09
2022-12-28T08:22:47.263Z,101833.28
2022-12-28T08:25:15.748Z,101833.66
2022-12-28T08:27:44.040Z,101833.16
2022-12-28T08:30:14.850Z,101831.53
2022-12-28T08:32:43.933Z,101834.50
2022-12-28T08:35:15.854Z,101824.19
2022-12-28T08:37:52.556Z,101828.56
2022-12-28T08:40:30.461Z,101830.44
2022-12-28T08:43:00.959Z,101835.53
2022-12-28T08:45:29.970Z,101833.78
2022-12-28T08:48:01.407Z,101823.16
2022-12-28T08:50:32.043Z,101817.81
2022-12-28T08:53:02.390Z,101832.06
2022-12-28T08:55:33.985Z,101826.06
2022-12-28T08:58:01.927Z,101820.69
2022-12-28T09:00:35.853Z,101832.44
2022-12-28T09:03:06.438Z,101826.66
2022-12-28T09:05:39.752Z,101829.38
2022-12-28T09:08:08.909Z,101838.34
2022-12-28T09:10:40.364Z,101829.44
2022-12-28T09:13:08.191Z,101825.09
2022-12-28T09:15:43.026Z,101829.22
2022-12-28T09:18:11.993Z,101818.91
2022-12-28T09:20:44.438Z,101829.44
2022-12-28T09:23:18.789Z,101828.84
2022-12-28T09:25:55.784Z,101838.31
2022-12-28T09:28:30.334Z,101846.59
2022-12-28T09:31:10.013Z,101841.13
2022-12-28T09:36:50.081Z,101852.84
2022-12-28T09:39:26.227Z,101847.44
2022-12-28T09:42:15.695Z,101851.22
2022-12-28T09:45:12.485Z,101845.09
2022-12-28T09:47:52.184Z,101852.97
2022-12-28T09:50:35.767Z,101845.94
2022-12-28T09:53:27.347Z,101859.66
2022-12-28T09:56:01.617Z,101871.81
2022-12-28T09:58:34.385Z,101863.75
2022-12-28T10:01:18.055Z,101869.28
2022-12-28T10:03:49.419Z,101872.06
2022-12-28T10:06:34.106Z,101863.44
2022-12-28T10:09:16.622Z,101869.09
2022-12-28T10:11:48.570Z,101875.34
2022-12-28T10:14:37.004Z,101877.16
2022-12-28T10:17:17.502Z,101878.22
2022-12-28T10:19:49.872Z,101874.63
2022-12-28T10:22:21.712Z,101876.53
2022-12-28T10:24:55.026Z,101880.38
2022-12-28T10:27:34.828Z,101888.84
2022-12-28T10:30:14.924Z,101891.69
2022-12-28T10:33:03.439Z,101895.16
2022-12-28T10:35:42.688Z,101899.03
2022-12-28T10:38:31.465Z,101908.97
2022-12-28T10:41:17.036Z,101899.28
2022-12-28T10:44:29.253Z,101901.22
2022-12-28T10:47:05.718Z,101902.97
2022-12-28T10:49:38.784Z,101914.94
2022-12-28T10:52:25.305Z,101926.19
2022-12-28T10:55:08.144Z,101921.66
2022-12-28T10:58:02.974Z,101917.06
2022-12-28T11:00:31.464Z,101919.91
2022-12-28T11:03:18.195Z,101909.22
2022-12-28T11:05:57.230Z,101919.56
2022-12-28T11:08:32.441Z,101915.13
2022-12-28T11:11:05.743Z,101918.38
2022-12-28T11:13:34.659Z,101920.00
2022-12-28T11:16:15.472Z,101922.41
2022-12-28T11:18:58.782Z,101923.44
2022-12-28T11:21:31.994Z,101944.91
2022-12-28T11:26:51.800Z,101958.88
2022-12-28T11:29:23.752Z,101958.88
2022-12-28T11:32:13.431Z,101966.16
2022-12-28T11:34:42.988Z,101964.41
2022-12-28T11:37:16.175Z,101962.72
2022-12-28T11:39:53.939Z,101961.84
2022-12-28T11:42:47.112Z,101968.72
2022-12-28T11:45:53.439Z,101969.25
2022-12-28T11:48:52.378Z,101972.19
2022-12-28T11:51:22.805Z,101957.63
2022-12-28T11:54:37.716Z,101967.66
2022-12-28T11:57:13.306Z,101974.97
2022-12-28T11:59:41.886Z,101961.84
2022-12-28T12:02:20.294Z,101968.63
2022-12-28T12:04:48.796Z,101966.50
2022-12-28T12:07:30.718Z,101975.66
2022-12-28T12:10:35.722Z,101971.63
2022-12-28T12:13:32.975Z,101977.13
2022-12-28T12:16:15.295Z,101977.75
2022-12-28T12:18:57.855Z,101986.97
2022-12-28T12:21:40.585Z,101988.44
2022-12-28T12:24:28.189Z,102000.69
2022-12-28T12:27:23.856Z,102001.03
2022-12-28T12:30:01.175Z,101999.97
2022-12-28T12:32:55.472Z,102010.63
2022-12-28T12:35:42.859Z,102009.69
2022-12-28T12:38:50.032Z,102019.13
2022-12-28T12:41:57.916Z,102016.59
2022-12-28T12:44:37.364Z,102016.81
2022-12-28T12:47:23.581Z,102023.69
2022-12-28T12:50:20.685Z,102026.72
2022-12-28T12:53:31.713Z,102052.41
2022-12-28T12:56:12.030Z,102056.13
2022-12-28T12:59:32.519Z,102061.66
2022-12-28T13:02:29.846Z,102063.97
2022-12-28T13:05:06.536Z,102055.69
2022-12-28T13:07:35.171Z,102051.66
2022-12-28T13:10:11.125Z,102062.09
2022-12-28T13:12:45.242Z,102065.78
2022-12-28T13:15:21.333Z,102062.28
2022-12-28T13:18:43.935Z,102074.28
2022-12-28T13:21:12.802Z,102078.91
2022-12-28T13:23:45.743Z,102077.56
2022-12-28T13:26:24.640Z,102081.22
2022-12-28T13:29:09.339Z,102089.75
2022-12-28T13:31:42.419Z,102086.97
2022-12-28T16:55:42.335Z,102311.75
2022-12-28T16:58:11.742Z,102320.47
2022-12-28T17:00:40.022Z,102320.47
2022-12-28T17:06:06.299Z,102332.31
2022-12-28T17:08:36.631Z,102328.97
2022-12-28T17:11:12.452Z,102341.13
2022-12-28T17:13:43.773Z,102346.53
2022-12-28T17:16:19.000Z,102341.47
2022-12-28T17:18:52.523Z,102349.84
2022-12-28T17:21:22.589Z,102345.38
2022-12-28T17:23:51.378Z,102342.28
2022-12-28T17:26:20.807Z,102349.47
2022-12-28T17:28:49.797Z,102351.63
2022-12-28T17:31:22.520Z,102347.94
2022-12-28T17:33:54.414Z,102347.03
2022-12-28T17:36:26.216Z,102352.94
2022-12-28T17:38:55.115Z,102353.50
2022-12-28T17:41:35.384Z,102360.97
2022-12-28T17:44:05.341Z,102356.59
2022-12-28T17:46:41.928Z,102363.91
2022-12-28T17:49:15.545Z,102356.84
2022-12-28T17:51:47.178Z,102363.88
2022-12-28T17:54:18.446Z,102367.13
2022-12-28T17:56:48.921Z,102373.13
2022-12-28T17:59:20.787Z,102381.25
2022-12-28T18:01:48.765Z,102371.59
2022-12-28T18:04:17.870Z,102379.56
2022-12-28T18:06:53.109Z,102389.66
2022-12-28T18:09:31.304Z,102377.44
2022-12-28T18:12:17.709Z,102382.75
2022-12-28T18:14:45.684Z,102386.19
2022-12-28T18:17:17.979Z,102387.06
2022-12-28T18:19:50.305Z,102388.34
2022-12-28T18:22:26.295Z,102394.09
2022-12-28T18:27:37.777Z,102399.47
2022-12-28T18:30:19.289Z,102405.47
2022-12-28T18:32:48.722Z,102409.16
2022-12-28T18:35:32.339Z,102408.31
2022-12-28T18:38:05.082Z,102412.59
2022-12-28T18:40:43.960Z,102416.19
2022-12-28T18:45:58.014Z,102419.63
2022-12-28T18:48:30.063Z,102419.09
2022-12-28T18:51:05.944Z,102420.19
2022-12-28T18:53:35.537Z,102423.47
2022-12-28T18:56:06.055Z,102415.16
2022-12-28T18:58:38.784Z,102412.22
2022-12-28T19:01:26.003Z,102413.69
2022-12-28T19:04:01.937Z,102417.03
2022-12-28T19:06:32.984Z,102417.19
2022-12-28T19:09:05.295Z,102421.41
2022-12-28T19:11:36.339Z,102428.69
2022-12-28T19:14:07.742Z,102422.34
2022-12-28T19:16:36.086Z,102422.34
2022-12-28T19:19:07.307Z,102423.44
2022-12-28T19:21:39.035Z,102425.75
2022-12-28T19:24:15.607Z,102440.03
2022-12-28T19:26:45.094Z,102437.38
2022-12-28T19:29:16.541Z,102433.44
2022-12-28T19:31:44.791Z,102436.88
2022-12-28T19:34:16.539Z,102425.75
2022-12-28T19:36:45.585Z,102425.22
2022-12-28T19:39:14.388Z,102435.28
2022-12-28T19:41:42.778Z,102441.97
2022-12-28T19:44:11.772Z,102442.31
2022-12-28T19:46:40.676Z,102449.19
2022-12-28T19:49:09.996Z,102450.53
2022-12-28T19:51:39.314Z,102457.72
2022-12-28T19:54:08.081Z,102466.78
2022-12-28T19:56:36.712Z,102456.16
2022-12-28T19:59:06.980Z,102461.22
2022-12-28T20:01:37.452Z,102456.66
2022-12-28T20:04:12.983Z,102466.94
2022-12-28T20:06:44.658Z,102465.22
2022-12-28T20:09:14.820Z,102459.69
2022-12-28T20:11:43.614Z,102463.84
2022-12-28T20:14:19.159Z,102460.72
2022-12-28T20:16:51.891Z,102463.69
2022-12-28T20:19:20.871Z,102469.44
2022-12-28T20:21:50.003Z,102466.56
2022-12-28T20:24:20.271Z,102468.75
2022-12-28T20:26:49.295Z,102471.66
2022-12-28T20:29:18.756Z,102476.31
2022-12-28T20:31:50.381Z,102468.59
2022-12-28T20:34:19.415Z,102477.47
2022-12-28T20:36:50.186Z,102478.59
2022-12-28T20:39:18.658Z,102475.41
2022-12-28T20:42:06.125Z,102485.06
2022-12-28T20:44:34.655Z,102486.31
2022-12-28T20:47:11.744Z,102486.28
2022-12-28T20:49:40.717Z,102486.00
2022-12-28T20:52:09.852Z,102486.94
2022-12-28T20:54:38.604Z,102480.78
2022-12-28T20:57:07.386Z,102485.06
2022-12-28T20:59:37.383Z,102489.88
2022-12-28T21:02:05.633Z,102499.63
2022-12-28T21:04:35.044Z,102487.09
2022-12-28T21:09:53.990Z,102496.44
2022-12-28T21:12:24.673Z,102498.78
2022-12-28T21:14:54.816Z,102499.94
2022-12-28T21:17:25.182Z,102495.44
2022-12-28T21:19:54.760Z,102501.75
2022-12-28T21:22:24.322Z,102500.25
2022-12-28T21:24:56.518Z,102499.25
2022-12-28T21:27:26.017Z,102486.31
2022-12-28T21:29:55.267Z,102486.16
2022-12-28T21:32:28.232Z,102488.03
2022-12-28T21:34:56.671Z,102480.69
2022-12-28T21:37:37.128Z,102487.88
2022-12-28T21:40:18.922Z,102494.66
2022-12-28T21:42:48.451Z,102492.66
2022-12-28T21:45:16.882Z,102495.59
2022-12-28T21:47:52.062Z,102500.66
2022-12-28T21:50:26.133Z,102495.19
2022-12-28T21:52:57.157Z,102499.09
2022-12-28T21:55:47.085Z,102504.47
2022-12-28T21:58:17.282Z,102500.09
2022-12-28T22:01:15.793Z,102500.81
2022-12-28T22:04:21.622Z,102495.09
2022-12-28T22:06:56.646Z,102498.38
2022-12-28T22:09:45.653Z,102499.03
2022-12-28T22:12:34.774Z,102511.56
2022-12-28T22:15:38.125Z,102501.69
2022-12-28T22:18:53.196Z,102502.22
2022-12-28T22:21:27.673Z,102509.63
2022-12-28T22:24:00.882Z,102502.59
2022-12-28T22:26:31.575Z,102502.44
2022-12-28T22:29:21.159Z,102498.41
2022-12-28T22:31:49.056Z,102500.50
2022-12-28T22:34:19.523Z,102496.72
2022-12-28T22:36:59.387Z,102484.28
2022-12-28T22:39:30.767Z,102497.53
2022-12-28T22:41:59.192Z,102499.59
2022-12-28T22:44:28.680Z,102495.03
2022-12-28T22:46:57.878Z,102488.88
2022-12-28T22:49:29.673Z,102494.88
2022-12-28T22:51:59.884Z,102483.25
2022-12-28T22:54:32.122Z,102486.84
2022-12-28T22:57:02.740Z,102497.38
2022-12-28T22:59:30.661Z,102493.00
2022-12-28T23:02:00.893Z,102493.16
2022-12-28T23:04:31.732Z,102501.34
2022-12-28T23:07:03.985Z,102514.34
2022-12-28T23:09:33.633Z,102499.94
2022-12-28T23:12:03.231Z,102500.50
2022-12-28T23:14:49.871Z,102496.94
2022-12-28T23:17:18.018Z,102503.91
2022-12-28T23:20:11.081Z,102500.78
2022-12-28T23:23:01.251Z,102502.50
2022-12-28T23:25:49.306Z,102510.91
2022-12-28T23:28:18.104Z,102517.13
2022-12-28T23:30:49.931Z,102517.00
2022-12-28T23:33:24.282Z,102513.25
2022-12-28T23:35:52.712Z,102511.06
2022-12-28T23:38:24.610Z,102505.75
2022-12-28T23:41:13.529Z,102517.28
2022-12-28T23:43:42.951Z,102510.41
2022-12-28T23:46:11.828Z,102501.25
2022-12-28T23:48:45.373Z,102511.84
2022-12-28T23:51:14.931Z,102514.78
2022-12-28T23:53:43.265Z,102516.50
2022-12-28T23:56:14.589Z,102512.91
2022-12-28T23:58:44.073Z,102511.25
